Time;durP1;ratioP1;P1;durP2;ratioP2;P2;SDS_P1;SDS_P2;PMS_P1;PMS_P2;Temp;Humidity;BMP_temperature;BMP_pressure;BME280_temperature;BME280_humidity;BME280_pressure;Samples;Min_cycle;Max_cycle;Signal;HPM_P1;HPM_P2
2021/04/01 00:00:37;;;;;;;30.80;22.63;;;;;;;12.22;100.00;101632.88;5036575;28;20017;-72
2021/04/01 00:03:23;;;;;;;28.92;21.90;;;;;;;12.29;100.00;101631.91;5023339;28;20362;-72
2021/04/01 00:06:08;;;;;;;32.97;22.90;;;;;;;12.14;100.00;101630.28;5036968;28;20099;-72
2021/04/01 00:08:54;;;;;;;29.30;22.00;;;;;;;12.00;100.00;101621.69;5037211;28;20022;-73
2021/04/01 00:11:40;;;;;;;32.38;22.70;;;;;;;11.89;100.00;101627.91;5036460;28;20462;-72
2021/04/01 00:14:26;;;;;;;31.38;22.08;;;;;;;12.39;100.00;101629.19;5036583;28;20044;-73
2021/04/01 00:17:12;;;;;;;31.17;22.42;;;;;;;12.39;100.00;101629.19;5036433;28;20025;-73
2021/04/01 00:19:58;;;;;;;30.67;22.70;;;;;;;12.15;100.00;101626.81;5021769;28;20029;-73
2021/04/01 00:22:44;;;;;;;31.02;22.35;;;;;;;12.41;100.00;101632.66;5036662;28;20037;-72
2021/04/01 00:25:30;;;;;;;31.25;23.73;;;;;;;12.50;100.00;101634.31;5007825;28;20033;-73
2021/04/01 00:28:16;;;;;;;32.13;23.27;;;;;;;12.74;100.00;101616.50;5036436;28;20172;-73
2021/04/01 00:31:02;;;;;;;32.13;23.35;;;;;;;12.47;100.00;101622.09;5035499;28;20025;-72
2021/04/01 00:33:47;;;;;;;32.20;24.15;;;;;;;12.39;100.00;101633.56;5022243;28;20068;-72
2021/04/01 00:36:33;;;;;;;36.63;25.17;;;;;;;11.44;100.00;101638.69;5035920;28;20505;-72
2021/04/01 00:39:19;;;;;;;36.65;25.02;;;;;;;11.28;100.00;101647.53;5036160;28;20100;-73
2021/04/01 00:42:06;;;;;;;35.35;24.00;;;;;;;10.72;100.00;101645.16;5021341;28;20037;-74
2021/04/01 00:44:52;;;;;;;36.30;25.52;;;;;;;11.17;100.00;101641.50;5021394;28;20057;-72
2021/04/01 00:47:43;;;;;;;36.35;24.70;;;;;;;11.41;100.00;101634.34;5035940;28;20064;-72
2021/04/01 00:50:31;;;;;;;35.63;25.52;;;;;;;11.26;100.00;101639.69;5035978;28;20037;-73
2021/04/01 00:53:16;;;;;;;37.00;25.35;;;;;;;11.55;100.00;101637.75;5036401;28;20031;-73
2021/04/01 00:56:02;;;;;;;38.90;25.65;;;;;;;11.58;100.00;101637.72;5035733;28;20136;-74
2021/04/01 00:58:48;;;;;;;36.83;25.40;;;;;;;11.35;100.00;101631.78;5036452;28;20029;-73
2021/04/01 01:01:40;;;;;;;37.22;24.95;;;;;;;11.59;100.00;101629.00;5021225;28;20029;-73
2021/04/01 01:04:27;;;;;;;35.60;25.98;;;;;;;11.70;100.00;101626.31;5036512;28;20033;-73
2021/04/01 01:07:13;;;;;;;37.08;26.25;;;;;;;11.57;100.00;101622.84;5035495;28;20022;-71
2021/04/01 01:09:59;;;;;;;38.55;25.98;;;;;;;11.46;100.00;101619.47;5021143;28;20029;-72
2021/04/01 01:12:44;;;;;;;37.83;26.50;;;;;;;11.45;100.00;101616.84;5035604;28;20022;-73
2021/04/01 01:15:31;;;;;;;46.17;25.52;;;;;;;10.98;100.00;101614.50;5035473;28;20028;-72
2021/04/01 01:18:17;;;;;;;38.63;26.27;;;;;;;11.23;100.00;101616.09;5035788;28;20361;-73
2021/04/01 01:21:03;;;;;;;40.13;25.85;;;;;;;11.39;100.00;101604.63;5035283;28;20064;-73
2021/04/01 01:23:50;;;;;;;37.75;25.20;;;;;;;11.04;100.00;101606.59;5020481;28;20025;-73
2021/04/01 01:26:36;;;;;;;34.35;24.08;;;;;;;11.29;100.00;101616.06;5035115;28;20108;-73
2021/04/01 01:29:22;;;;;;;36.97;26.45;;;;;;;11.25;100.00;101610.84;5035214;28;20025;-73
2021/04/01 01:32:08;;;;;;;36.97;24.40;;;;;;;11.04;100.00;101603.06;5035134;28;20036;-73
2021/04/01 01:34:54;;;;;;;34.83;24.38;;;;;;;11.34;100.00;101606.41;5035588;28;20022;-72
2021/04/01 01:37:52;;;;;;;33.88;24.20;;;;;;;10.97;100.00;101604.88;5035272;28;20037;-72
2021/04/01 01:40:38;;;;;;;31.77;22.45;;;;;;;10.75;100.00;101610.22;5035291;28;20025;-73
2021/04/01 01:43:24;;;;;;;32.45;23.25;;;;;;;10.94;100.00;101614.50;5020274;28;20026;-74
2021/04/01 01:46:10;;;;;;;33.20;23.42;;;;;;;11.01;100.00;101606.59;5035136;28;20033;-74
2021/04/01 01:48:57;;;;;;;36.28;23.13;;;;;;;10.79;100.00;101601.47;5020045;28;20021;-72
2021/04/01 01:51:42;;;;;;;35.08;24.17;;;;;;;10.53;100.00;101619.88;5035538;28;20080;-73
2021/04/01 01:54:28;;;;;;;34.53;24.10;;;;;;;10.32;100.00;101611.25;5034505;28;20036;-72
2021/04/01 01:57:14;;;;;;;35.88;24.88;;;;;;;9.92;100.00;101608.63;5034130;28;20110;-73
2021/04/01 02:00:01;;;;;;;36.83;23.42;;;;;;;9.94;100.00;101616.50;5034547;28;20033;-72
2021/04/01 02:02:58;;;;;;;41.72;25.27;;;;;;;10.02;100.00;101617.38;5033839;28;20026;-73
2021/04/01 02:05:44;;;;;;;32.95;23.83;;;;;;;9.80;100.00;101613.00;5034351;28;20458;-72
2021/04/01 02:08:29;;;;;;;37.35;24.08;;;;;;;9.09;100.00;101622.50;5020024;28;20053;-72
2021/04/01 02:11:18;;;;;;;36.25;24.27;;;;;;;9.18;100.00;101612.06;5035044;28;20021;-73
2021/04/01 02:14:04;;;;;;;40.35;24.13;;;;;;;9.22;100.00;101614.69;5034481;28;20025;-73
2021/04/01 02:16:50;;;;;;;37.40;24.05;;;;;;;9.28;100.00;101619.03;5034359;28;20061;-72
2021/04/01 02:19:36;;;;;;;36.60;24.20;;;;;;;9.42;100.00;101627.81;5033621;28;20095;-72
2021/04/01 02:22:22;;;;;;;39.03;24.17;;;;;;;9.48;100.00;101623.44;5034259;28;20041;-72
2021/04/01 02:25:08;;;;;;;37.03;24.20;;;;;;;9.68;100.00;101631.31;5034005;28;20064;-72
2021/04/01 02:27:54;;;;;;;34.40;23.58;;;;;;;9.57;100.00;101625.22;5034548;28;20025;-73
2021/04/01 02:30:42;;;;;;;34.63;23.50;;;;;;;9.65;100.00;101626.94;5019587;28;20069;-73
2021/04/01 02:33:30;;;;;;;39.70;24.10;;;;;;;9.77;100.00;101628.72;5034511;28;20026;-74
2021/04/01 02:36:16;;;;;;;32.75;23.15;;;;;;;9.63;100.00;101626.09;5033877;28;20060;-74
2021/04/01 02:39:02;;;;;;;34.05;22.67;;;;;;;9.48;100.00;101627.78;5033977;28;20453;-73
2021/04/01 02:41:48;;;;;;;33.95;24.15;;;;;;;9.58;100.00;101627.84;5033683;28;20029;-73
2021/04/01 02:44:34;;;;;;;30.17;22.35;;;;;;;9.32;100.00;101631.25;5033885;28;20132;-73
2021/04/01 02:47:19;;;;;;;36.75;23.92;;;;;;;9.69;100.00;101630.47;5033854;28;20044;-74
2021/04/01 02:50:06;;;;;;;34.42;22.63;;;;;;;9.40;100.00;101637.38;5033928;28;20064;-73
2021/04/01 02:52:53;;;;;;;32.40;22.83;;;;;;;9.25;100.00;101630.38;5032957;28;20072;-75
2021/04/01 02:55:38;;;;;;;36.80;23.33;;;;;;;9.35;100.00;101641.72;5034352;28;20040;-74
2021/04/01 02:58:24;;;;;;;33.90;23.27;;;;;;;9.63;100.00;101641.78;5034640;28;20021;-74
2021/04/01 03:01:10;;;;;;;34.83;23.23;;;;;;;9.16;100.00;101643.44;5033592;28;20128;-73
2021/04/01 03:03:58;;;;;;;39.70;24.08;;;;;;;8.97;100.00;101644.22;5020107;28;20018;-74
2021/04/01 03:06:44;;;;;;;37.13;23.98;;;;;;;9.28;100.00;101650.41;5033570;28;20026;-74
2021/04/01 03:09:29;;;;;;;37.88;23.95;;;;;;;9.28;100.00;101650.41;5033745;28;20029;-73
2021/04/01 03:12:15;;;;;;;36.35;23.85;;;;;;;8.97;100.00;101653.81;5033356;28;20520;-73
2021/04/01 03:15:01;;;;;;;36.20;23.42;;;;;;;8.94;100.00;101656.41;5037584;28;20036;-74
2021/04/01 03:17:47;;;;;;;35.63;23.80;;;;;;;8.72;100.00;101651.97;5036891;28;20022;-74
2021/04/01 03:20:32;;;;;;;35.90;24.08;;;;;;;8.43;100.00;101658.75;5037486;28;20092;-74
2021/04/01 03:23:18;;;;;;;31.48;22.88;;;;;;;8.26;100.00;101660.41;5037434;28;20014;-74
2021/04/01 03:26:04;;;;;;;39.13;24.35;;;;;;;8.29;100.00;101653.47;5037582;28;20021;-74
2021/04/01 03:28:50;;;;;;;37.95;25.13;;;;;;;8.63;100.00;101652.78;5023088;28;20441;-73
2021/04/01 03:31:36;;;;;;;35.20;23.92;;;;;;;8.32;100.00;101657.84;5023098;28;20029;-73
2021/04/01 03:34:22;;;;;;;37.85;24.02;;;;;;;8.74;100.00;101663.28;5037252;28;20112;-73
2021/04/01 03:37:07;;;;;;;34.92;23.33;;;;;;;8.63;100.00;101662.34;5037295;28;20454;-74
2021/04/01 03:39:54;;;;;;;36.42;23.92;;;;;;;8.30;100.00;101660.44;5038482;28;20033;-73
2021/04/01 03:42:40;;;;;;;42.83;24.20;;;;;;;8.57;100.00;101655.34;5036825;28;20119;-75
2021/04/01 03:45:25;;;;;;;36.03;24.25;;;;;;;8.43;100.00;101658.75;5037397;28;20021;-74
2021/04/01 03:48:12;;;;;;;38.03;24.98;;;;;;;8.18;100.00;101656.81;5022991;28;20072;-75
2021/04/01 03:50:57;;;;;;;41.80;25.33;;;;;;;7.94;100.00;101664.47;5037441;28;20362;-74
2021/04/01 03:53:43;;;;;;;37.50;24.83;;;;;;;8.37;100.00;101670.03;5037165;28;20029;-73
2021/04/01 03:56:29;;;;;;;37.83;23.27;;;;;;;8.01;100.00;101663.66;5022714;28;20053;-74
2021/04/01 03:59:18;;;;;;;38.13;23.48;;;;;;;7.48;100.00;101665.78;5036981;28;20163;-73
2021/04/01 04:02:30;;;;;;;37.63;23.33;;;;;;;7.88;100.00;101667.03;5022667;28;20029;-73
2021/04/01 04:13:58;;;;;;;38.40;24.20;;;;;;;7.91;100.00;101669.66;5037101;28;20053;-74
2021/04/01 04:16:44;;;;;;;37.22;22.63;;;;;;;7.63;100.00;101670.28;5037023;28;20014;-73
2021/04/01 04:19:29;;;;;;;39.53;23.20;;;;;;;7.83;100.00;101666.97;5037117;28;20041;-73
2021/04/01 04:22:15;;;;;;;34.67;23.58;;;;;;;7.57;100.00;101665.00;5022521;28;20057;-73
2021/04/01 04:25:03;;;;;;;39.88;22.70;;;;;;;8.00;100.00;101667.13;5035448;28;20128;-73
2021/04/01 04:30:41;;;;;;;44.50;24.95;;;;;;;7.79;100.00;101660.00;5036767;28;20055;-74
2021/04/01 04:33:28;;;;;;;44.70;24.33;;;;;;;7.76;100.00;101673.00;5022284;28;20374;-74
2021/04/01 04:36:13;;;;;;;40.15;23.52;;;;;;;8.12;100.00;101669.84;5021488;28;20131;-74
2021/04/01 04:38:59;;;;;;;48.55;26.60;;;;;;;7.74;100.00;101663.41;5036055;28;20033;-73
2021/04/01 04:41:45;;;;;;;54.55;30.15;;;;;;;7.99;100.00;101673.19;5035165;28;20025;-74
2021/04/01 04:44:33;;;;;;;51.83;25.40;;;;;;;7.89;100.00;101671.38;5035802;28;20032;-74
2021/04/01 04:47:19;;;;;;;42.22;23.30;;;;;;;8.13;100.00;101671.59;5035818;28;20048;-74
2021/04/01 04:50:06;;;;;;;47.70;22.48;;;;;;;8.00;100.00;101672.34;5022163;28;20025;-74
2021/04/01 04:52:52;;;;;;;44.13;22.23;;;;;;;7.83;100.00;101671.31;5035848;28;20068;-75
2021/04/01 04:55:38;;;;;;;40.22;23.50;;;;;;;7.85;100.00;101678.31;5035984;28;20013;-74
2021/04/01 04:58:52;;;;;;;42.80;22.45;;;;;;;8.26;100.00;101682.16;5036033;28;20025;-74
2021/04/01 05:04:45;;;;;;;47.17;21.95;;;;;;;8.26;100.00;101686.50;5036313;28;20060;-73
2021/04/01 05:07:30;;;;;;;43.65;23.10;;;;;;;8.49;100.00;101690.16;5035071;28;20108;-74
2021/04/01 05:10:16;;;;;;;49.15;23.42;;;;;;;8.54;100.00;101691.03;5021471;28;20021;-74
2021/04/01 05:13:09;;;;;;;36.08;20.77;;;;;;;8.18;100.00;101688.16;5035446;28;20033;-74
2021/04/01 05:15:55;;;;;;;34.15;20.27;;;;;;;8.47;100.00;101692.75;5035658;28;20092;-74
2021/04/01 05:18:40;;;;;;;35.17;21.85;;;;;;;8.53;100.00;101698.00;5035318;28;20087;-75
2021/04/01 05:21:36;;;;;;;32.90;19.17;;;;;;;8.72;100.00;101693.78;5035338;28;20161;-74
2021/04/01 05:24:23;;;;;;;30.13;18.58;;;;;;;8.70;100.00;101693.78;5020566;28;20446;-74
2021/04/01 05:27:25;;;;;;;36.10;17.55;;;;;;;8.39;100.00;101693.56;5035292;28;20037;-73
2021/04/01 05:30:11;;;;;;;29.02;18.15;;;;;;;8.60;100.00;101693.72;5036496;28;20025;-73
2021/04/01 05:32:57;;;;;;;30.77;18.52;;;;;;;9.12;100.00;101685.22;5035049;28;20112;-73
2021/04/01 05:35:43;;;;;;;26.88;16.35;;;;;;;8.74;100.00;101697.25;5034470;28;20050;-73
2021/04/01 05:38:29;;;;;;;32.28;18.15;;;;;;;9.03;100.00;101691.31;5033796;28;20029;-74
2021/04/01 05:41:15;;;;;;;32.17;18.38;;;;;;;8.92;100.00;101684.31;5034797;28;20036;-73
2021/04/01 05:44:11;;;;;;;28.00;17.02;;;;;;;9.18;100.00;101685.28;5020455;28;20109;-73
2021/04/01 05:47:13;;;;;;;29.45;17.88;;;;;;;9.33;100.00;101677.47;5034891;28;20699;-73
2021/04/01 05:56:37;;;;;;;23.75;13.65;;;;;;;9.23;100.00;101694.00;5023460;28;20021;-74
2021/04/01 06:04:52;;;;;;;22.63;14.93;;;;;;;9.47;100.00;101686.22;5035287;28;20033;-75
2021/04/01 06:07:44;;;;;;;21.60;14.30;;;;;;;9.55;100.00;101695.84;5021588;28;20112;-74
2021/04/01 06:10:30;;;;;;;22.80;14.63;;;;;;;9.68;100.00;101689.75;5035171;28;20116;-72
2021/04/01 06:13:19;;;;;;;22.35;14.98;;;;;;;9.52;100.00;101693.22;5034190;28;20077;-75
2021/04/01 06:16:08;;;;;;;18.80;14.13;;;;;;;9.94;100.00;101687.19;5034643;28;20025;-73
2021/04/01 06:18:55;;;;;;;19.85;14.68;;;;;;;10.25;96.15;101693.31;5034658;28;20029;-73
2021/04/01 06:21:42;;;;;;;19.10;13.32;;;;;;;9.84;97.05;101694.13;5019426;28;20069;-73
2021/04/01 06:24:30;;;;;;;24.60;15.57;;;;;;;10.05;96.86;101690.72;5019295;28;20042;-72
2021/04/01 06:27:30;;;;;;;20.63;13.60;;;;;;;9.62;95.29;101694.13;5020122;28;20120;-73
2021/04/01 06:33:12;;;;;;;19.00;12.40;;;;;;;9.85;94.78;101697.66;5034353;28;20467;-73
2021/04/01 06:36:03;;;;;;;26.60;13.52;;;;;;;10.25;92.92;101693.31;5034445;28;20056;-73
2021/04/01 06:38:49;;;;;;;17.80;13.07;;;;;;;10.35;91.34;101690.69;5033734;28;20061;-76
2021/04/01 06:41:35;;;;;;;17.98;12.20;;;;;;;10.11;90.98;101693.31;5033694;28;20116;-74
2021/04/01 06:44:44;;;;;;;21.10;13.77;;;;;;;10.41;96.93;101689.81;5019132;28;20026;-74
2021/04/01 06:47:32;;;;;;;22.52;15.90;;;;;;;10.55;100.00;101691.53;5032862;28;20038;-74
2021/04/01 06:50:34;;;;;;;25.73;16.02;;;;;;;10.77;100.00;101695.81;5034226;28;20032;-74
2021/04/01 06:53:38;;;;;;;20.83;13.98;;;;;;;10.40;92.94;101694.16;5033467;28;20089;-76
2021/04/01 06:56:37;;;;;;;23.42;15.15;;;;;;;10.56;97.14;101702.88;5033545;28;20017;-74
2021/04/01 06:59:45;;;;;;;25.73;15.65;;;;;;;10.72;100.00;101697.59;5034632;28;20091;-74
2021/04/01 07:02:36;;;;;;;25.88;15.98;;;;;;;10.74;100.00;101701.09;5033578;28;20454;-73
2021/04/01 07:05:39;;;;;;;21.73;15.65;;;;;;;10.93;100.00;101702.78;5033598;28;20026;-74
2021/04/01 07:11:35;;;;;;;21.00;13.63;;;;;;;11.05;97.66;101707.13;5034110;28;20025;-75
2021/04/01 07:14:25;;;;;;;19.77;13.25;;;;;;;11.45;93.04;101704.28;5018842;28;20034;-73
2021/04/01 07:17:25;;;;;;;23.33;13.15;;;;;;;11.30;92.29;101706.13;5018647;28;20040;-74
2021/04/01 07:35:51;;;;;;;16.52;9.88;;;;;;;11.06;84.93;101693.13;5033830;28;20100;-74
2021/04/01 07:48:02;;;;;;;16.73;10.00;;;;;;;11.58;81.17;101691.97;5033725;28;20406;-74
2021/04/01 07:50:49;;;;;;;12.07;9.38;;;;;;;11.46;81.78;101692.06;5033029;28;20542;-74
2021/04/01 07:53:36;;;;;;;12.65;8.68;;;;;;;11.56;80.38;101683.22;5018450;28;20025;-74
2021/04/01 07:56:34;;;;;;;13.45;8.95;;;;;;;11.70;80.27;101686.69;5033531;28;20036;-75
2021/04/01 07:59:47;;;;;;;12.90;9.38;;;;;;;11.76;80.12;101692.75;5033378;28;20117;-73
2021/04/01 08:05:42;;;;;;;11.90;8.98;;;;;;;12.06;78.85;101692.53;5037168;28;20311;-74
2021/04/01 08:08:34;;;;;;;11.77;9.07;;;;;;;12.29;78.00;101690.59;5023007;28;20029;-74
2021/04/01 08:11:30;;;;;;;17.23;10.05;;;;;;;12.82;76.75;101690.91;5021908;28;20022;-74
2021/04/01 08:14:25;;;;;;;15.85;8.57;;;;;;;12.91;74.10;101693.44;5036492;28;20083;-73
2021/04/01 08:17:19;;;;;;;15.43;9.30;;;;;;;13.45;73.24;101684.91;5036695;28;20026;-74
2021/04/01 08:20:06;;;;;;;12.32;9.13;;;;;;;14.22;70.00;101683.72;5021614;28;20021;-74
2021/04/01 08:23:18;;;;;;;13.20;8.70;;;;;;;14.33;69.26;101684.41;5022092;28;20029;-74
2021/04/01 08:35:29;;;;;;;15.32;9.40;;;;;;;14.25;67.72;101679.28;5036561;28;20025;-74
2021/04/01 08:38:16;;;;;;;16.30;10.05;;;;;;;14.04;68.25;101668.19;5036571;28;20461;-73
2021/04/01 08:41:16;;;;;;;18.88;9.68;;;;;;;14.82;66.45;101677.31;5036034;28;20041;-74
2021/04/01 08:44:23;;;;;;;13.07;8.73;;;;;;;14.62;66.04;101677.72;5036300;28;20040;-74
2021/04/01 08:47:32;;;;;;;13.05;8.70;;;;;;;14.05;66.68;101668.16;5035902;28;20048;-74
2021/04/01 08:50:36;;;;;;;9.95;8.13;;;;;;;13.99;64.84;101673.50;5035715;28;20462;-74
2021/04/01 08:53:56;;;;;;;12.23;8.10;;;;;;;14.44;63.79;101667.47;5035874;28;20494;-74
2021/04/01 08:56:50;;;;;;;13.73;8.65;;;;;;;14.33;63.92;101664.19;5035720;28;20029;-74
2021/04/01 08:59:47;;;;;;;15.13;8.40;;;;;;;15.16;62.31;101664.31;5035821;28;20069;-74
2021/04/01 09:02:34;;;;;;;14.38;7.78;;;;;;;15.38;60.13;101655.94;5020316;28;20080;-74
2021/04/01 09:05:21;;;;;;;10.90;8.23;;;;;;;15.24;60.99;101659.75;5035500;28;20029;-75
2021/04/01 09:08:08;;;;;;;11.95;8.18;;;;;;;14.66;61.61;101660.94;5021405;28;20409;-74
2021/04/01 09:10:55;;;;;;;11.93;7.10;;;;;;;15.08;58.38;101646.00;5035499;28;20040;-74
2021/04/01 09:13:47;;;;;;;11.95;7.03;;;;;;;14.77;58.96;101651.03;5034243;28;20029;-74
2021/04/01 09:16:34;;;;;;;15.20;7.75;;;;;;;15.37;58.26;101648.91;5035653;28;20033;-74
2021/04/01 09:19:27;;;;;;;12.10;8.60;;;;;;;15.80;58.64;101640.88;5034875;28;20053;-75
2021/04/01 09:22:20;;;;;;;17.02;9.05;;;;;;;15.74;57.81;101643.63;5021341;28;20049;-75
2021/04/01 09:25:07;;;;;;;11.95;8.00;;;;;;;15.99;56.28;101634.22;5020914;28;20036;-75
2021/04/01 09:28:00;;;;;;;12.45;8.00;;;;;;;14.88;56.87;101633.22;5035337;28;20044;-74
2021/04/01 09:30:56;;;;;;;9.90;7.22;;;;;;;14.78;57.66;101625.50;5034949;28;20022;-74
2021/04/01 09:33:42;;;;;;;12.93;6.82;;;;;;;14.96;58.29;101629.56;5020660;28;20055;-74
2021/04/01 09:36:38;;;;;;;10.98;6.90;;;;;;;14.98;58.26;101628.63;5020040;28;20021;-74
2021/04/01 09:39:31;;;;;;;15.00;7.97;;;;;;;14.55;58.21;101615.41;5020054;28;20358;-74
2021/04/01 09:42:17;;;;;;;12.13;7.65;;;;;;;15.10;57.55;101616.94;5034445;28;20040;-74
2021/04/01 09:45:04;;;;;;;12.43;6.63;;;;;;;14.97;58.02;101611.06;5034641;28;20021;-74
2021/04/01 09:47:52;;;;;;;12.38;6.70;;;;;;;15.35;57.35;101610.25;5019424;28;20437;-75
2021/04/01 09:50:44;;;;;;;11.02;7.15;;;;;;;15.70;56.44;101610.28;5033673;28;20494;-74
2021/04/01 09:53:32;;;;;;;10.77;7.22;;;;;;;15.87;55.90;101611.59;5034239;28;20084;-75
2021/04/01 09:56:32;;;;;;;12.70;7.15;;;;;;;15.59;57.20;101601.75;5034422;28;20040;-73
2021/04/01 09:59:21;;;;;;;10.77;7.88;;;;;;;15.22;57.16;101596.41;5019506;28;20036;-75
2021/04/01 10:02:14;;;;;;;9.35;7.15;;;;;;;14.89;57.89;101581.31;5034297;28;20091;-74
2021/04/01 10:05:05;;;;;;;12.40;6.63;;;;;;;14.69;58.48;101588.78;5019211;28;20040;-74
2021/04/01 10:07:58;;;;;;;8.90;6.68;;;;;;;15.03;57.55;101581.03;5019235;28;20044;-74
2021/04/01 10:10:45;;;;;;;12.82;7.80;;;;;;;14.73;59.25;101586.06;5033642;28;20037;-74
2021/04/01 10:13:32;;;;;;;10.70;7.20;;;;;;;15.03;58.35;101583.66;5033856;28;20117;-74
2021/04/01 10:16:52;;;;;;;8.35;6.65;;;;;;;15.77;56.95;101577.50;5034939;28;20025;-74
2021/04/01 10:19:48;;;;;;;9.40;7.20;;;;;;;15.47;55.88;101576.47;5017247;28;20557;-73
2021/04/01 10:22:39;;;;;;;11.68;7.00;;;;;;;15.62;55.29;101578.75;5018635;28;20053;-74
2021/04/01 10:25:28;;;;;;;14.13;6.55;;;;;;;15.97;55.04;101562.00;5019887;28;20093;-74
2021/04/01 10:31:50;;;;;;;10.02;6.93;;;;;;;15.31;55.45;101559.22;5027860;28;20045;-75
2021/04/01 10:34:44;;;;;;;9.05;6.00;;;;;;;16.21;54.67;101558.72;5034315;28;20032;-74
2021/04/01 10:37:30;;;;;;;11.60;6.13;;;;;;;15.78;54.51;101560.75;5034156;28;20036;-74
2021/04/01 10:40:18;;;;;;;11.65;6.70;;;;;;;16.16;54.41;101545.63;5034386;28;20025;-75
2021/04/01 10:43:07;;;;;;;9.73;5.88;;;;;;;16.17;52.23;101551.78;5019144;28;20033;-75
2021/04/01 10:45:54;;;;;;;6.38;5.07;;;;;;;15.50;51.96;101542.09;5033674;28;20426;-75
2021/04/01 10:48:46;;;;;;;7.15;5.10;;;;;;;15.92;51.32;101545.41;5033372;28;20037;-75
2021/04/01 10:51:31;;;;;;;9.77;5.95;;;;;;;16.64;49.68;101531.03;5033842;28;20037;-76
2021/04/01 10:54:18;;;;;;;10.70;5.70;;;;;;;16.37;49.59;101533.59;5019463;28;20034;-74
2021/04/01 10:57:05;;;;;;;8.38;5.35;;;;;;;16.73;48.39;101524.63;5033613;28;20056;-75
2021/04/01 10:59:52;;;;;;;7.60;5.72;;;;;;;16.27;48.09;101522.41;5033466;28;20033;-75
2021/04/01 11:02:58;;;;;;;10.10;6.10;;;;;;;16.15;48.20;101516.59;5033399;28;20055;-75
2021/04/01 11:05:45;;;;;;;8.63;5.85;;;;;;;15.97;48.23;101523.25;5033411;28;20029;-74
2021/04/01 11:08:46;;;;;;;9.35;5.68;;;;;;;16.23;48.62;101514.63;5018616;28;20469;-75
2021/04/01 11:14:32;;;;;;;7.30;5.25;;;;;;;16.38;47.02;101498.28;5033882;28;20136;-73
2021/04/01 11:17:21;;;;;;;10.20;6.72;;;;;;;17.08;45.85;101495.31;5033223;28;20026;-74
2021/04/01 11:20:07;;;;;;;7.30;5.00;;;;;;;16.66;46.22;101486.91;5033090;28;20033;-74
2021/04/01 11:23:02;;;;;;;8.70;5.78;;;;;;;16.71;45.93;101478.81;5033613;28;20030;-74
2021/04/01 11:25:50;;;;;;;7.43;5.32;;;;;;;15.52;45.37;101486.59;5033092;28;20036;-75
2021/04/01 11:28:39;;;;;;;6.80;5.15;;;;;;;16.16;46.03;101476.88;5033546;28;20330;-74
2021/04/01 11:31:29;;;;;;;8.85;5.88;;;;;;;16.19;47.35;101473.31;5033114;28;20116;-74
2021/04/01 11:34:17;;;;;;;11.68;5.78;;;;;;;16.52;46.53;101477.66;5035248;28;20120;-74
2021/04/01 11:37:05;;;;;;;8.98;5.93;;;;;;;16.82;46.13;101474.94;5036979;28;20048;-73
2021/04/01 11:40:06;;;;;;;8.68;5.85;;;;;;;16.99;45.64;101469.09;5037286;28;20062;-73
2021/04/01 11:42:59;;;;;;;8.75;6.00;;;;;;;16.79;46.42;101477.66;5036958;28;20029;-73
2021/04/01 11:45:45;;;;;;;8.95;6.70;;;;;;;17.25;46.06;101471.78;5037081;28;20454;-73
2021/04/01 11:48:31;;;;;;;8.43;6.22;;;;;;;17.71;44.94;101461.38;5037262;28;20044;-75
2021/04/01 11:51:23;;;;;;;9.27;6.13;;;;;;;17.57;45.29;101458.38;5035626;28;20021;-74
2021/04/01 11:54:11;;;;;;;7.50;5.72;;;;;;;17.61;44.89;101450.22;5036808;28;20044;-76
2021/04/01 11:56:57;;;;;;;9.02;5.85;;;;;;;17.49;44.67;101453.31;5036732;28;20033;-75
2021/04/01 11:59:51;;;;;;;8.95;6.15;;;;;;;17.45;43.55;101446.38;5036803;28;20021;-73
2021/04/01 12:03:11;;;;;;;6.47;5.30;;;;;;;17.70;43.47;101439.34;5036816;28;20450;-74
2021/04/01 12:05:57;;;;;;;10.60;5.50;;;;;;;17.46;43.29;101434.00;5021912;28;20123;-75
2021/04/01 12:08:43;;;;;;;7.30;4.68;;;;;;;17.57;42.76;101424.75;5021969;28;20029;-75
2021/04/01 12:11:39;;;;;;;6.80;5.20;;;;;;;17.87;42.26;101430.75;5036542;28;20060;-76
2021/04/01 12:14:35;;;;;;;8.20;5.68;;;;;;;17.85;41.91;101419.38;5036689;28;20353;-75
2021/04/01 12:17:35;;;;;;;10.10;5.13;;;;;;;17.97;41.54;101417.13;5036375;28;20092;-75
2021/04/01 12:20:22;;;;;;;7.95;4.55;;;;;;;17.50;39.43;101417.97;5031810;28;20155;-74
2021/04/01 12:23:24;;;;;;;5.63;4.57;;;;;;;17.32;39.40;101412.41;5016516;28;20030;-74
2021/04/01 12:26:09;;;;;;;5.95;4.50;;;;;;;17.14;39.72;101415.66;5016405;28;20054;-76
2021/04/01 12:29:01;;;;;;;6.47;4.47;;;;;;;17.57;39.22;101400.06;5017318;28;20030;-74
2021/04/01 12:31:53;;;;;;;8.15;4.28;;;;;;;17.25;39.87;101398.50;5002089;28;20089;-74
2021/04/01 12:34:41;;;;;;;5.97;4.38;;;;;;;17.38;40.14;101393.63;5017140;28;20034;-74
2021/04/01 12:37:27;;;;;;;5.90;3.60;;;;;;;17.78;34.82;101386.91;5001097;28;20042;-73
2021/04/01 12:40:19;;;;;;;4.65;3.13;;;;;;;17.83;32.75;101377.00;5016592;28;20036;-73
2021/04/01 12:43:06;;;;;;;5.97;3.50;;;;;;;17.57;34.17;101382.34;5016819;28;20064;-76
2021/04/01 12:45:54;;;;;;;5.05;3.20;;;;;;;17.30;32.54;101374.47;5015208;28;20040;-75
2021/04/01 12:48:41;;;;;;;6.78;3.45;;;;;;;17.32;33.97;101367.38;5001631;28;20030;-74
2021/04/01 12:51:26;;;;;;;5.68;3.80;;;;;;;17.89;34.56;101371.47;5014521;28;20037;-74
2021/04/01 12:54:14;;;;;;;5.20;3.92;;;;;;;17.52;35.75;101364.91;5015656;28;20022;-75
2021/04/01 12:57:06;;;;;;;7.15;4.50;;;;;;;17.39;36.55;101371.50;5001681;28;20022;-76
2021/04/01 12:59:56;;;;;;;8.60;4.10;;;;;;;17.66;35.13;101366.16;5001475;28;20026;-76
2021/04/01 13:02:41;;;;;;;7.78;4.18;;;;;;;17.54;34.08;101357.75;5001244;28;20032;-77
2021/04/01 13:05:27;;;;;;;7.25;4.10;;;;;;;17.72;34.42;101365.06;5016452;28;20026;-76
2021/04/01 13:11:19;;;;;;;6.05;4.22;;;;;;;17.79;36.12;101354.19;5016279;28;20029;-73
2021/04/01 13:14:04;;;;;;;6.90;5.07;;;;;;;17.33;36.94;101339.94;5014334;28;20442;-73
2021/04/01 13:16:51;;;;;;;4.78;4.28;;;;;;;17.42;36.60;101337.00;5016304;28;20034;-73
2021/04/01 13:19:37;;;;;;;6.22;4.70;;;;;;;17.65;37.70;101337.06;5014380;28;20022;-72
2021/04/01 13:22:44;;;;;;;9.88;6.85;;;;;;;17.50;38.32;101327.88;5015862;28;20073;-72
2021/04/01 13:25:30;;;;;;;8.25;5.97;;;;;;;17.43;39.59;101323.72;5015827;28;20034;-74
2021/04/01 13:28:16;;;;;;;17.95;14.73;;;;;;;17.34;40.66;101321.38;5015478;28;20026;-75
2021/04/01 13:31:04;;;;;;;7.15;4.70;;;;;;;17.66;38.27;101320.22;5016308;28;20514;-72
2021/04/01 13:33:58;;;;;;;8.23;4.93;;;;;;;17.59;38.65;101324.88;5014280;28;20374;-73
2021/04/01 13:36:55;;;;;;;6.90;5.13;;;;;;;17.55;37.91;101319.75;5014965;28;20105;-73
2021/04/01 13:39:51;;;;;;;9.05;4.93;;;;;;;17.80;38.59;101315.28;5015825;28;20037;-73
2021/04/01 13:42:48;;;;;;;7.13;5.07;;;;;;;17.23;38.98;101317.34;5014136;28;20037;-75
2021/04/01 13:45:34;;;;;;;8.90;5.60;;;;;;;17.37;39.12;101300.03;5015049;28;20041;-72
2021/04/01 14:09:53;;;;;;;15.20;9.70;;;;;;;18.12;39.23;101269.81;5035112;28;20395;-73
2021/04/01 14:12:52;;;;;;;10.15;6.72;;;;;;;18.26;38.29;101260.41;5019631;28;20116;-75
2021/04/01 14:15:38;;;;;;;9.23;6.28;;;;;;;17.71;39.60;101265.25;5020208;28;20025;-73
2021/04/01 14:18:32;;;;;;;9.32;5.32;;;;;;;17.84;39.47;101266.53;5019168;28;20044;-73
2021/04/01 14:21:22;;;;;;;8.40;5.50;;;;;;;17.99;39.40;101265.91;5021289;28;20060;-73
2021/04/01 14:24:34;;;;;;;8.48;5.20;;;;;;;17.57;39.54;101256.97;5034649;28;20037;-73
2021/04/01 14:27:29;;;;;;;8.05;5.38;;;;;;;17.15;41.37;101258.47;5033481;28;20144;-73
2021/04/01 14:30:16;;;;;;;16.63;12.00;;;;;;;17.67;41.87;101261.00;5034339;28;20498;-74
2021/04/01 14:33:03;;;;;;;8.23;6.47;;;;;;;17.41;42.61;101251.34;5034586;28;20087;-76
2021/04/01 14:35:58;;;;;;;13.75;10.93;;;;;;;17.88;42.11;101249.59;5021257;28;20087;-74
2021/04/01 14:38:47;;;;;;;9.43;5.97;;;;;;;17.63;42.77;101247.00;5032951;28;20028;-73